Wind from 360 at 13 knots

Air temperature 17.0° C
Visibility: greater than 5.4 NM
Dewpoint 8.0° C

Last reported at 2014-Apr-19 12:30 UTC.
Time now 2014-Apr-19 14:35 UTC

Location: N 42°46' W 001°38'.
View on Google Maps.

See reports from other nearby stations

Tides Stations Pressure Air Temp Water Temp Dewpoint Dewpoint depression Visibility Wind Speed Wind Dir Waves Ship positions

  
sailing weather and tide predictions

PAMPLONA / NOAIN weather

date/time (UTC)wind fromknots sea level pressurealtimeterstation pressurevisibilityair tempwater tempwave heightnotes
2014-Apr-19 13:30 320 12 5.417.0
2014-Apr-19 13:00 360 12 5.417.0
2014-Apr-19 12:30 360 13 5.417.0
2014-Apr-19 12:00 350 14 5.417.0
2014-Apr-19 11:30 350 14 5.416.0
2014-Apr-19 11:00 330 12 5.416.0
2014-Apr-19 10:30 340 16 5.416.0
2014-Apr-19 10:00 330 16 5.416.0
2014-Apr-19 09:30 320 13 5.415.0
2014-Apr-19 09:00 320 11 5.414.0
2014-Apr-19 08:30 320 10 13.0
2014-Apr-19 08:00 320 9 12.0
2014-Apr-19 07:30 320 10 11.0
2014-Apr-19 07:00 330 7 11.0
2014-Apr-19 06:30 9.0
2014-Apr-19 06:00 8.0
2014-Apr-19 05:30 6.0
2014-Apr-19 05:00 6.0
2014-Apr-19 04:30 150 1 7.0
2014-Apr-19 04:00 7.0
2014-Apr-19 03:30 6.0
2014-Apr-18 22:00 13.0
2014-Apr-18 21:30 12.0
2014-Apr-18 21:00 350 7 13.0
2014-Apr-18 20:30 14.0
2014-Apr-18 20:00 340 4 14.0
2014-Apr-18 19:30 320 5 16.0
2014-Apr-18 19:00 340 6 17.0
2014-Apr-18 18:30 340 11 19.0
2014-Apr-18 18:00 350 13 20.0
2014-Apr-18 17:30 350 11 21.0
2014-Apr-18 17:00 340 10 23.0
2014-Apr-18 16:30 330 10 23.0
2014-Apr-18 16:00 340 13 24.0
2014-Apr-18 15:30 300 10 24.0
2014-Apr-18 15:00 340 9 24.0
2014-Apr-18 14:30 340 9 24.0
2014-Apr-18 14:00 350 10 24.0
2014-Apr-18 13:30 350 8 24.0
2014-Apr-18 13:00 330 7 24.0
2014-Apr-18 12:30 290 8 24.0
2014-Apr-18 12:00 310 9 23.0
2014-Apr-18 11:30 300 8 23.0
2014-Apr-18 11:00 270 3 22.0
2014-Apr-18 10:30 290 4 20.0
2014-Apr-18 10:00 310 1 19.0
2014-Apr-18 09:30 17.0
2014-Apr-18 09:00 270 1 15.0
2014-Apr-18 08:30 14.0
2014-Apr-18 08:00 13.0
2014-Apr-18 07:30 11.0
2014-Apr-18 07:00 9.0
2014-Apr-18 06:30 8.0
2014-Apr-18 06:00 5.0
2014-Apr-18 05:30 070 2 5.0
2014-Apr-18 05:00 4.0
2014-Apr-18 04:30 090 2 5.0
2014-Apr-18 04:00 6.0
2014-Apr-18 03:30 080 3 4.0
2014-Apr-17 22:00 360 3 11.0
2014-Apr-17 21:30 13.0
2014-Apr-17 21:00 13.0
2014-Apr-17 20:30 12.0
2014-Apr-17 20:00 310 4 14.0
2014-Apr-17 19:30 330 10 16.0
2014-Apr-17 19:00 340 8 16.0
2014-Apr-17 18:30 350 9 18.0
2014-Apr-17 18:00 340 12 19.0
2014-Apr-17 16:30 350 15 22.0
2014-Apr-17 15:30 350 16 23.0
2014-Apr-17 15:00 360 14 23.0
2014-Apr-17 14:30 350 14 23.0
2014-Apr-17 14:00 360 10 23.0